Terminal Aerodrome Forecast
Issued by NWS Billings, MT

Home | Current Version | Previous Version | Graphics & Text | Print | Product List | Glossary On
Versions: 1 2 3 4 5 6 7 8 9 10 11 12 13 14 15 16 17 18 19 20 21 22 23 24 25 26
000
FTUS45 KBYZ 211739
TAFMLS
TAF
KMLS 211739Z 2118/2218 34009KT P6SM VCSH SCT080 BKN150
      TEMPO 2118/2119 -SHRA BKN080
     FM212200 35014KT P6SM VCTS SCT080CB BKN250
     FM220200 36010KT P6SM VCSH SCT090 OVC250
     FM220700 07008KT P6SM BKN250=

USA.gov is the U.S. government's official web portal to all federal, state and local government web resources and services.